createdAt,value
2022-12-13T00:00:02.472Z,98547.38
2022-12-13T00:04:54.107Z,98534.88
2022-12-13T00:09:46.043Z,98551.34
2022-12-13T00:14:39.224Z,98540.00
2022-12-13T00:19:30.926Z,98530.38
2022-12-13T00:29:14.696Z,98523.38
2022-12-13T00:34:06.400Z,98505.91
2022-12-13T00:39:01.780Z,98504.72
2022-12-13T00:43:53.790Z,98519.06
2022-12-13T00:48:50.638Z,98512.91
2022-12-13T00:53:42.670Z,98513.09
2022-12-13T00:58:35.641Z,98509.44
2022-12-13T01:03:27.524Z,98492.13
2022-12-13T01:08:19.388Z,98497.44
2022-12-13T01:13:11.421Z,98504.91
2022-12-13T01:18:03.144Z,98506.94
2022-12-13T01:22:54.910Z,98510.06
2022-12-13T01:27:46.603Z,98512.56
2022-12-13T01:32:38.545Z,98517.69
2022-12-13T01:37:30.596Z,98513.00
2022-12-13T01:42:22.285Z,98523.13
2022-12-13T01:47:19.190Z,98524.63
2022-12-13T01:52:14.454Z,98527.75
2022-12-13T01:57:10.796Z,98527.94
2022-12-13T02:02:03.030Z,98527.75
2022-12-13T02:06:57.378Z,98524.25
2022-12-13T02:11:49.860Z,98534.75
2022-12-13T02:16:57.210Z,98540.44
2022-12-13T02:21:51.946Z,98530.59
2022-12-13T02:26:56.074Z,98533.94
2022-12-13T02:32:00.515Z,98527.28
2022-12-13T02:37:18.662Z,98544.28
2022-12-13T02:42:25.687Z,98541.97
2022-12-13T02:47:25.898Z,98539.97
2022-12-13T02:52:22.495Z,98539.13
2022-12-13T02:57:31.254Z,98537.13
2022-12-13T03:02:43.252Z,98534.47
2022-12-13T03:07:55.765Z,98535.09
2022-12-13T03:13:38.148Z,98532.72
2022-12-13T03:18:33.082Z,98541.53
2022-12-13T03:23:25.955Z,98521.25
2022-12-13T03:28:18.030Z,98511.75
2022-12-13T03:33:09.965Z,98520.41
2022-12-13T03:38:02.161Z,98507.28
2022-12-13T03:42:53.859Z,98510.94
2022-12-13T03:47:45.573Z,98507.63
2022-12-13T03:52:37.268Z,98511.56
2022-12-13T03:57:29.431Z,98513.44
2022-12-13T04:02:30.739Z,98519.22
2022-12-13T04:07:23.496Z,98519.41
2022-12-13T04:12:33.704Z,98521.06
2022-12-13T04:17:25.391Z,98519.22
2022-12-13T04:22:23.284Z,98514.88
2022-12-13T04:27:16.663Z,98510.75
2022-12-13T04:32:26.503Z,98514.25
2022-12-13T04:37:19.042Z,98501.09
2022-12-13T04:42:11.803Z,98502.31
2022-12-13T04:47:03.723Z,98504.59
2022-12-13T04:52:00.509Z,98501.09
2022-12-13T04:56:53.139Z,98505.44
2022-12-13T05:01:45.071Z,98498.25
2022-12-13T05:06:36.895Z,98500.91
2022-12-13T05:11:35.921Z,98496.97
2022-12-13T05:16:27.964Z,98490.78
2022-12-13T05:21:19.781Z,98488.97
2022-12-13T05:26:11.486Z,98482.34
2022-12-13T05:31:23.638Z,98493.00
2022-12-13T05:36:15.860Z,98493.53
2022-12-13T05:41:13.711Z,98494.19
2022-12-13T05:46:05.895Z,98500.03
2022-12-13T05:51:09.909Z,98499.22
2022-12-13T05:56:03.599Z,98494.25
2022-12-13T06:00:55.529Z,98500.75
2022-12-13T06:05:47.423Z,98494.78
2022-12-13T06:10:39.279Z,98502.31
2022-12-13T06:15:34.558Z,98486.69
2022-12-13T06:20:27.139Z,98502.97
2022-12-13T06:25:30.694Z,98499.84
2022-12-13T06:30:23.818Z,98495.16
2022-12-13T06:35:27.909Z,98507.47
2022-12-13T06:40:23.207Z,98525.09
2022-12-13T06:45:15.385Z,98522.06
2022-12-13T06:50:07.770Z,98515.56
2022-12-13T06:55:00.071Z,98519.41
2022-12-13T06:59:52.166Z,98513.53
2022-12-13T07:04:44.395Z,98512.84
2022-12-13T07:09:36.816Z,98509.34
2022-12-13T07:14:28.636Z,98497.88
2022-12-13T07:19:24.031Z,98509.00
2022-12-13T07:24:16.416Z,98513.69
2022-12-13T07:29:08.190Z,98512.00
2022-12-13T07:34:00.395Z,98508.34
2022-12-13T07:38:57.157Z,98509.34
2022-12-13T07:43:48.936Z,98499.88
2022-12-13T07:48:47.181Z,98497.56
2022-12-13T07:53:39.957Z,98502.72
2022-12-13T07:58:33.538Z,98511.56
2022-12-13T08:03:26.593Z,98511.06
2022-12-13T08:08:21.183Z,98515.09
2022-12-13T08:13:12.889Z,98511.13
2022-12-13T08:18:05.297Z,98508.66
2022-12-13T08:23:01.754Z,98507.66
2022-12-13T08:27:54.169Z,98517.94
2022-12-13T08:32:53.408Z,98512.13
2022-12-13T08:37:45.128Z,98519.94
2022-12-13T08:42:37.239Z,98527.94
2022-12-13T08:47:29.011Z,98528.13
2022-12-13T08:52:22.867Z,98523.63
2022-12-13T08:57:14.921Z,98512.97
2022-12-13T09:02:06.742Z,98509.81
2022-12-13T09:06:58.534Z,98512.97
2022-12-13T09:11:53.556Z,98519.31
2022-12-13T09:16:51.857Z,98520.78
2022-12-13T09:21:43.727Z,98511.78
2022-12-13T09:26:38.463Z,98515.28
2022-12-13T09:31:30.496Z,98508.94
2022-12-13T09:36:22.687Z,98515.75
2022-12-13T09:41:34.467Z,98505.72
2022-12-13T09:46:45.158Z,98501.06
2022-12-13T09:51:41.470Z,98486.78
2022-12-13T09:56:35.601Z,98506.25
2022-12-13T10:01:27.723Z,98500.75
2022-12-13T10:06:24.357Z,98506.75
2022-12-13T10:11:18.004Z,98510.53
2022-12-13T10:16:23.590Z,98516.53
2022-12-13T10:21:22.709Z,98512.38
2022-12-13T10:26:24.178Z,98504.19
2022-12-13T10:31:20.706Z,98499.16
2022-12-13T10:36:30.012Z,98503.13
2022-12-13T10:41:37.055Z,98509.75
2022-12-13T10:46:31.264Z,98490.44
2022-12-13T10:51:38.743Z,98495.41
2022-12-13T10:56:37.626Z,98496.22
2022-12-13T11:01:29.499Z,98488.03
2022-12-13T11:06:21.385Z,98484.56
2022-12-13T11:11:18.690Z,98483.38
2022-12-13T11:16:34.205Z,98474.84
2022-12-13T11:21:31.059Z,98463.63
2022-12-13T11:26:25.461Z,98461.88
2022-12-13T11:31:41.641Z,98457.22
2022-12-13T11:36:36.427Z,98449.75
2022-12-13T11:41:34.656Z,98461.44
2022-12-13T11:46:40.324Z,98447.63
2022-12-13T11:51:43.264Z,98450.13
2022-12-13T11:56:40.317Z,98439.81
2022-12-13T12:01:44.119Z,98421.16
2022-12-13T12:06:45.482Z,98414.97
2022-12-13T12:11:37.063Z,98409.09
2022-12-13T12:16:40.726Z,98406.38
2022-12-13T12:22:12.174Z,98402.66
2022-12-13T12:26:49.997Z,98400.28
2022-12-13T12:32:14.050Z,98404.88
2022-12-13T12:37:42.977Z,98403.50
2022-12-13T12:43:14.454Z,98392.63
2022-12-13T12:53:48.228Z,98391.72
2022-12-13T12:58:51.437Z,98374.50
2022-12-13T13:03:44.987Z,98386.19
2022-12-13T13:08:59.410Z,98383.34
2022-12-13T13:14:35.199Z,98371.28
2022-12-13T13:19:32.761Z,98377.72
2022-12-13T13:24:32.593Z,98370.78
2022-12-13T13:29:27.324Z,98381.09
2022-12-13T13:34:29.329Z,98374.94
2022-12-13T13:39:56.285Z,98378.78
2022-12-13T13:44:51.478Z,98368.78
2022-12-13T13:50:27.725Z,98370.59
2022-12-13T13:55:22.589Z,98367.31
2022-12-13T14:00:19.160Z,98365.00
2022-12-13T14:05:30.134Z,98353.53
2022-12-13T14:10:52.392Z,98359.50
2022-12-13T14:16:20.188Z,98351.84
2022-12-13T14:21:15.284Z,98355.53
2022-12-13T14:26:34.236Z,98341.56
2022-12-13T14:31:39.589Z,98346.66
2022-12-13T14:36:35.375Z,98350.88
2022-12-13T14:41:27.145Z,98343.06
2022-12-13T14:46:19.384Z,98334.44
2022-12-13T14:51:38.557Z,98332.75
2022-12-13T14:56:30.626Z,98339.66
2022-12-13T15:01:25.490Z,98333.06
2022-12-13T15:06:22.207Z,98328.84
2022-12-13T15:11:14.651Z,98315.88
2022-12-13T15:16:11.420Z,98312.94
2022-12-13T15:21:03.323Z,98319.00
2022-12-13T15:26:28.101Z,98317.56
2022-12-13T15:31:22.373Z,98321.16
2022-12-13T15:36:19.966Z,98331.19
2022-12-13T15:41:18.477Z,98326.84
2022-12-13T15:46:10.522Z,98323.44
2022-12-13T15:51:29.435Z,98321.13
2022-12-13T15:57:04.548Z,98334.00
2022-12-13T16:01:58.703Z,98318.50
2022-12-13T16:06:55.758Z,98320.97
2022-12-13T16:11:53.599Z,98327.28
2022-12-13T16:16:45.425Z,98325.38
2022-12-13T16:21:37.035Z,98313.78
2022-12-13T16:26:29.366Z,98308.63
2022-12-13T16:31:25.819Z,98313.88
2022-12-13T16:36:18.160Z,98310.56
2022-12-13T16:41:10.395Z,98315.41
2022-12-13T16:47:10.309Z,98313.28
2022-12-13T16:51:16.642Z,98305.03
2022-12-13T16:56:11.478Z,98308.69
2022-12-13T17:01:15.046Z,98316.03
2022-12-13T17:06:09.963Z,98317.22
2022-12-13T17:11:01.724Z,98311.78
2022-12-13T17:15:59.747Z,98317.28
2022-12-13T17:20:58.148Z,98306.38
2022-12-13T17:25:58.722Z,98311.19
2022-12-13T17:30:54.449Z,98309.75
2022-12-13T17:35:47.345Z,98316.88
2022-12-13T17:40:39.212Z,98313.75
2022-12-13T17:45:30.931Z,98322.09
2022-12-13T17:50:22.630Z,98319.78
2022-12-13T17:55:18.334Z,98312.97
2022-12-13T18:00:11.027Z,98307.19
2022-12-13T18:05:02.823Z,98305.06
2022-12-13T18:09:54.527Z,98298.09
2022-12-13T18:14:46.220Z,98299.81
2022-12-13T18:19:37.909Z,98306.13
2022-12-13T18:24:29.605Z,98298.50
2022-12-13T18:29:21.792Z,98292.06
2022-12-13T18:34:13.582Z,98290.44
2022-12-13T18:39:05.613Z,98289.94
2022-12-13T18:44:00.422Z,98287.81
2022-12-13T18:48:52.180Z,98279.25
2022-12-13T18:53:43.992Z,98276.94
2022-12-13T18:58:36.587Z,98288.56
2022-12-13T19:03:28.716Z,98287.44
2022-12-13T19:08:26.372Z,98272.53
2022-12-13T19:13:18.321Z,98282.88
2022-12-13T19:18:10.864Z,98286.69
2022-12-13T19:23:02.647Z,98289.69
2022-12-13T19:27:56.922Z,98296.03
2022-12-13T19:32:48.744Z,98293.22
2022-12-13T19:37:40.600Z,98297.06
2022-12-13T19:42:32.404Z,98311.34
2022-12-13T19:47:24.189Z,98299.56
2022-12-13T19:52:15.828Z,98300.25
2022-12-13T19:57:08.051Z,98317.22
2022-12-13T20:02:00.184Z,98308.75
2022-12-13T20:06:51.975Z,98305.28
2022-12-13T20:11:43.666Z,98304.47
2022-12-13T20:16:35.389Z,98307.81
2022-12-13T20:21:28.773Z,98304.63
2022-12-13T20:26:23.271Z,98301.16
2022-12-13T20:31:18.606Z,98297.69
2022-12-13T20:36:24.747Z,98296.84
2022-12-13T20:41:17.445Z,98275.94
2022-12-13T20:46:11.809Z,98277.78
2022-12-13T20:51:06.006Z,98285.09
2022-12-13T20:55:58.095Z,98282.44
2022-12-13T21:00:49.951Z,98271.81
2022-12-13T21:05:44.613Z,98273.63
2022-12-13T21:10:36.338Z,98265.19
2022-12-13T21:15:28.148Z,98263.22
2022-12-13T21:20:20.120Z,98278.50
2022-12-13T21:25:11.834Z,98267.88
2022-12-13T21:30:04.002Z,98268.22
2022-12-13T21:34:55.692Z,98263.28
2022-12-13T21:39:47.421Z,98260.31
2022-12-13T21:44:39.099Z,98259.63
2022-12-13T21:49:30.976Z,98264.28
2022-12-13T21:54:22.932Z,98268.97
2022-12-13T21:59:16.399Z,98260.66
2022-12-13T22:04:08.114Z,98269.28
2022-12-13T22:08:59.923Z,98274.59
2022-12-13T22:13:51.524Z,98287.84
2022-12-13T22:18:43.259Z,98284.84
2022-12-13T22:23:34.956Z,98277.19
2022-12-13T22:28:29.701Z,98279.69
2022-12-13T22:33:21.597Z,98283.19
2022-12-13T22:38:13.475Z,98292.97
2022-12-13T22:43:05.202Z,98286.69
2022-12-13T22:47:56.916Z,98287.19
2022-12-13T22:52:48.592Z,98288.69
2022-12-13T22:57:40.460Z,98279.91
2022-12-13T23:02:32.184Z,98285.69
2022-12-13T23:07:24.051Z,98288.69
2022-12-13T23:12:34.866Z,98292.53
2022-12-13T23:17:26.716Z,98286.38
2022-12-13T23:22:22.594Z,98287.88
2022-12-13T23:27:14.520Z,98288.38
2022-12-13T23:32:06.391Z,98296.50
2022-12-13T23:36:58.371Z,98302.28
2022-12-13T23:41:50.287Z,98304.63
2022-12-13T23:46:42.193Z,98291.00
2022-12-13T23:51:40.999Z,98297.00
2022-12-13T23:56:32.681Z,98286.34
